Terminal Aerodrome Forecast
Issued by NWS

Home | Current Version | Previous Version | Graphics & Text | Print | Product List | Glossary On
Versions: 1 2 3 4 5 6 7 8 9 10 11 12 13 14 15 16 17 18 19 20 21 22 23 24 25 26
000
FTUS43 KBIS 250500
TAFMOT
TAF
KMOT 250531Z 2506/2606 28011KT P6SM SCT015 BKN025
      TEMPO 2506/2508 SCT008 BKN015
     FM250800 31012KT 5SM -SHSN BR BKN009 OVC012
     FM251600 31016KT P6SM -SHSN OVC015
     FM260100 32012KT P6SM SCT015 SCT035=

USA.gov is the U.S. government's official web portal to all federal, state and local government web resources and services.